الصفحة الرئيسية
METAR-TAF:

METAR-TAF

مطار :

كراكاس, فنزويلا

دائرة عرض: 10-36N, خط طول: 066-59W, ارتفاع: 43 متر

مراقبة الطقس الحالي

تاريخ ووقت الإصدار 6ساعات و 22 دقيقة قبل الساعة 03:00UTC
ريح 3 عقدة من الشرق
درجة الحرارة 25°درجة مئوية
الرطوبة 89%
ضغط 1009 hPa
غيوم قليلة على ارتفاع 1600 قدم

METAR: SVMI 170300Z 09003KT FEW016 25/23 Q1009

زمن: 05:22 (09:22 UTC)

توقعات

تاريخ ووقت الإصدار 5ساعات و 22 دقيقة قبل الساعة 04:00UTC
التوقعات صالحة من17 الساعة 06 UTC إلى 18 الساعة 06 UTC
ريح عقدة من الشمال
الرؤية 10 كم أو أكثر
غيوم متفرقة على ارتفاع 1600 قدم
مؤقت
من 17 الساعة 06 UTC إلى 17 الساعة 10 UTC
الرؤية 10 كم أو أكثر
الغيوم لا تقل 1500 م ولا وجود لمزنة ركامية السحاب الأسود

TAF: SVMI 170400Z 1706/1806 00000KT 9999 SCT016 TX33/18ZTN25/07Z TEMPO 1706/1710 CAVOK

أرصاد الطقس والتوقعات من أكثر من 4000 مطار (تقارير الطقس للمطار METAR والتنبؤ بالطقس بالمطارTAF).

المحطات المتاحة هي النقط الصفراء والحمراء على الخريطة.

حرك المؤشر فوق النقطة لمعرفة اسم المحطة.

ثم انقر لمعرفة أرصاد وتوقعات الطقس.

لتغيير الخارطة: اضغط على الأزرار الخضراء مع رمز الصليب الأسود للتكبير. على الزر الأخضر مع شرطة للتصغير، أو على الأسهم الخضراء للخرائط المجاورة.


METAR-TAF: